Portada
METAR-TAF:

METAR-TAF

Aeroports :

Aktau, Kazakhstan

latitud: 43-52-12N, longitud: 051-06E, altitud: 22 m

Observació

L'informe es va fer fa 24 minuts, a les 00:00 UTC
Vent 6 kt del Nord-Est
Temperatura 5°C
Humitat 81%
Pressió 1011 hPa
Visibilitat 10 km o més
sense núvols per sota de 1500 mi sense presència de cumulonimbus.

METAR: UATE 020000Z 05003MPS CAVOK 05/02 Q1011 R30/0///70 NOSIG RMK QFE757/1009

Hora: 05:24 (00:24 UTC)

Pronòstic

L'informe es va fer fa 1 hora i 18 minuts, a les 23:06 UTC
Pronòstic vàlid del 02 a les 00 UTC al 02 a les 24 UTC
Vent 10 kt del Nord-Est
Visibilitat 10 km o més
Núvols disperses a una alçada de 1100 ft
Cel ennuvolat a una alçada de 5000 ft, Cumulonimbus.
Temporalment
l' 02 a les 03 UTC al 02 a les 15 UTC
Visibilitat: 4000 m
Cel ennuvolat a una alçada de 500 ft
Cel ennuvolat a una alçada de 2500 ft, Cumulonimbus.
xàfecs de pluja

TAF: UATE 012306Z 0200/0224 05005MPS 9999 SCT011 BKN050CB TX13/0209Z TN04/0202Z TEMPO 0203/0215 4000 -SHRA BKN005 BKN025CB

Observacions i pronòstics meteorològics de més de 4000 aeroports (METAR i TAF).

Les estacions disponibles són els punts grocs i vermells al mapa.

Posi el ratolí al punt desitjat per veure el nom de l'estació.

Feu clic per veure les observacions i els pronòstics meteorològics.

Per canviar el mapa: feu clic els botons verds amb una creu de color negre per apropar; al botó verd amb un guió per allunyar la imatge; o en les fletxes verdes per a mapes adjacents.


METAR-TAF: